首页
METAR-TAF:

METAR-TAF

机场 :

滑鐵盧區國際機場

滑铁卢, 安大略省, 加拿大

纬度: 43-28N, 经度: 080-23W, 海拔: 317米

当前天气观测

该预报发布于6分钟前的17:35 UTC
风速11节,风向北转西北,有时为16节阵风
温度 -8°C
湿度 62%
气压 1031 hPa
能見度: 14.5公里
天空无云
小雪

METAR: CYKF 201735Z AUTO 33011G16KT 9SM -SN CLR M08/M14 A3044 RMK SLP332

时间: 12:41 (17:41 UTC)

预报

该预报发布于4小时和2分钟前的13:39 UTC
预报有效从20日的 14点(UTC)到 21日的 02点(UTC)
风速6节,风向西北
能見度: 10公里
天空无云
成为
从 20日的 14点(UTC)到 20日的 16点(UTC)
风速10节,风向西北,有时为20节阵风

TAF: CYKF 201339Z 2014/2102 32006KT P6SM SKC BECMG 2014/2016 32010G20KT RMK FCST BASED ON AUTO OBS. NXT FCST BY 202000Z

超过4000个机场的气象观测和天气预报(METAR&TAF报告)。

可查询的气象台以黄色和红色小点在地图上表示。

将鼠标移到小点上方,可查看气象台名称。

然后点击查看天气观测和预报。

如需切换地图:点击带黑十字的绿色按钮放大地图;点击带横线的绿色按钮缩小地图;或者点击绿色箭头查看邻近地区的地图。


METAR-TAF: